Terminal Aerodrome Forecast
Issued by NWS

Home | Current Version | Previous Version | Text Only | Print | Product List | Glossary On
Versions: 1 2 3 4 5 6 7 8 9 10 11 12 13 14 15 16 17 18 19 20 21 22 23
000
FTUS43 KPAH 041729
TAFCGI
TAF
KCGI 041729Z 0418/0518 36014G26KT 4SM -FZRAPL BR SCT015 OVC035
      TEMPO 0418/0420 2SM -SN BR SCT008 OVC015
     FM042000 01015G20KT 3SM -SN BR OVC015
      TEMPO 0420/0422 1SM -SNPL BR OVC008
     FM042200 01015G22KT 2SM -SN BR OVC008
     FM050800 01012G20KT 3SM BR OVC025
     FM051300 36010KT P6SM OVC050=

USA.gov is the U.S. government's official web portal to all federal, state and local government web resources and services.